sensor_id;sensor_type;location;lat;lon;timestamp;P1;durP1;ratioP1;P2;durP2;ratioP2
29430;SDS011;16404;49.902;10.074;2022-11-20T00:02:41;51.08;;;24.52;;
29430;SDS011;16404;49.902;10.074;2022-11-20T00:05:26;50.78;;;24.38;;
29430;SDS011;16404;49.902;10.074;2022-11-20T00:08:11;50.35;;;23.20;;
29430;SDS011;16404;49.902;10.074;2022-11-20T00:10:55;51.50;;;24.98;;
29430;SDS011;16404;49.902;10.074;2022-11-20T00:13:40;52.63;;;24.75;;
29430;SDS011;16404;49.902;10.074;2022-11-20T00:16:25;49.55;;;24.65;;
29430;SDS011;16404;49.902;10.074;2022-11-20T00:19:10;49.58;;;23.60;;
29430;SDS011;16404;49.902;10.074;2022-11-20T00:21:55;49.50;;;23.67;;
29430;SDS011;16404;49.902;10.074;2022-11-20T00:24:39;51.75;;;24.77;;
29430;SDS011;16404;49.902;10.074;2022-11-20T00:27:24;48.45;;;22.33;;
29430;SDS011;16404;49.902;10.074;2022-11-20T00:30:08;50.45;;;25.10;;
29430;SDS011;16404;49.902;10.074;2022-11-20T00:32:53;48.15;;;23.20;;
29430;SDS011;16404;49.902;10.074;2022-11-20T00:35:40;49.03;;;23.13;;
29430;SDS011;16404;49.902;10.074;2022-11-20T00:38:25;53.45;;;23.83;;
29430;SDS011;16404;49.902;10.074;2022-11-20T00:41:10;48.08;;;24.05;;
29430;SDS011;16404;49.902;10.074;2022-11-20T00:43:56;52.60;;;24.55;;
29430;SDS011;16404;49.902;10.074;2022-11-20T00:46:41;52.78;;;23.90;;
29430;SDS011;16404;49.902;10.074;2022-11-20T00:49:25;57.22;;;26.27;;
29430;SDS011;16404;49.902;10.074;2022-11-20T00:52:10;54.67;;;26.58;;
29430;SDS011;16404;49.902;10.074;2022-11-20T00:54:55;56.53;;;25.70;;
29430;SDS011;16404;49.902;10.074;2022-11-20T00:57:39;53.28;;;24.55;;
29430;SDS011;16404;49.902;10.074;2022-11-20T01:00:24;57.88;;;25.75;;
29430;SDS011;16404;49.902;10.074;2022-11-20T01:03:08;53.70;;;25.00;;
29430;SDS011;16404;49.902;10.074;2022-11-20T01:05:53;48.90;;;23.77;;
29430;SDS011;16404;49.902;10.074;2022-11-20T01:08:38;55.50;;;24.50;;
29430;SDS011;16404;49.902;10.074;2022-11-20T01:11:24;57.33;;;26.13;;
29430;SDS011;16404;49.902;10.074;2022-11-20T01:14:12;51.95;;;23.63;;
29430;SDS011;16404;49.902;10.074;2022-11-20T01:16:57;52.40;;;25.10;;
29430;SDS011;16404;49.902;10.074;2022-11-20T01:19:42;55.95;;;25.23;;
29430;SDS011;16404;49.902;10.074;2022-11-20T01:22:26;55.38;;;25.50;;
29430;SDS011;16404;49.902;10.074;2022-11-20T01:25:11;55.42;;;25.50;;
29430;SDS011;16404;49.902;10.074;2022-11-20T01:27:56;55.20;;;25.45;;
29430;SDS011;16404;49.902;10.074;2022-11-20T01:30:40;60.72;;;25.27;;
29430;SDS011;16404;49.902;10.074;2022-11-20T01:33:25;53.45;;;23.98;;
29430;SDS011;16404;49.902;10.074;2022-11-20T01:36:11;51.58;;;24.13;;
29430;SDS011;16404;49.902;10.074;2022-11-20T01:39:00;53.28;;;25.27;;
29430;SDS011;16404;49.902;10.074;2022-11-20T01:41:47;52.25;;;25.17;;
29430;SDS011;16404;49.902;10.074;2022-11-20T01:47:43;54.55;;;24.35;;
29430;SDS011;16404;49.902;10.074;2022-11-20T01:50:29;56.22;;;24.17;;
29430;SDS011;16404;49.902;10.074;2022-11-20T01:53:14;58.33;;;25.23;;
29430;SDS011;16404;49.902;10.074;2022-11-20T01:56:02;54.60;;;25.13;;
29430;SDS011;16404;49.902;10.074;2022-11-20T01:58:53;55.72;;;24.85;;
29430;SDS011;16404;49.902;10.074;2022-11-20T02:01:40;54.92;;;25.20;;
29430;SDS011;16404;49.902;10.074;2022-11-20T02:04:25;51.67;;;24.42;;
29430;SDS011;16404;49.902;10.074;2022-11-20T02:07:10;52.03;;;24.20;;
29430;SDS011;16404;49.902;10.074;2022-11-20T02:09:55;58.38;;;25.27;;
29430;SDS011;16404;49.902;10.074;2022-11-20T02:12:40;54.33;;;24.08;;
29430;SDS011;16404;49.902;10.074;2022-11-20T02:15:43;56.75;;;26.70;;
29430;SDS011;16404;49.902;10.074;2022-11-20T02:24:19;49.30;;;23.05;;
29430;SDS011;16404;49.902;10.074;2022-11-20T02:27:23;52.13;;;24.95;;
29430;SDS011;16404;49.902;10.074;2022-11-20T02:30:08;53.78;;;24.73;;
29430;SDS011;16404;49.902;10.074;2022-11-20T02:32:54;54.15;;;24.27;;
29430;SDS011;16404;49.902;10.074;2022-11-20T02:35:40;49.85;;;24.83;;
29430;SDS011;16404;49.902;10.074;2022-11-20T02:38:26;47.95;;;22.25;;
29430;SDS011;16404;49.902;10.074;2022-11-20T02:41:10;55.22;;;24.08;;
29430;SDS011;16404;49.902;10.074;2022-11-20T02:43:55;54.33;;;24.95;;
29430;SDS011;16404;49.902;10.074;2022-11-20T02:46:39;52.58;;;24.05;;
29430;SDS011;16404;49.902;10.074;2022-11-20T02:49:24;51.95;;;24.48;;
29430;SDS011;16404;49.902;10.074;2022-11-20T02:52:09;59.60;;;26.50;;
29430;SDS011;16404;49.902;10.074;2022-11-20T02:54:54;55.45;;;26.27;;
29430;SDS011;16404;49.902;10.074;2022-11-20T02:57:38;55.00;;;25.17;;
29430;SDS011;16404;49.902;10.074;2022-11-20T03:00:23;57.00;;;26.00;;
29430;SDS011;16404;49.902;10.074;2022-11-20T03:03:08;59.53;;;26.23;;
29430;SDS011;16404;49.902;10.074;2022-11-20T03:05:52;61.20;;;27.55;;
29430;SDS011;16404;49.902;10.074;2022-11-20T03:08:37;59.38;;;27.40;;
29430;SDS011;16404;49.902;10.074;2022-11-20T03:11:22;58.35;;;25.95;;
29430;SDS011;16404;49.902;10.074;2022-11-20T03:14:06;60.15;;;26.23;;
29430;SDS011;16404;49.902;10.074;2022-11-20T03:16:51;56.30;;;25.60;;
29430;SDS011;16404;49.902;10.074;2022-11-20T03:19:36;56.65;;;26.13;;
29430;SDS011;16404;49.902;10.074;2022-11-20T03:22:20;61.35;;;25.33;;
29430;SDS011;16404;49.902;10.074;2022-11-20T03:25:05;56.28;;;25.23;;
29430;SDS011;16404;49.902;10.074;2022-11-20T03:27:50;54.65;;;25.75;;
29430;SDS011;16404;49.902;10.074;2022-11-20T03:30:34;53.28;;;25.00;;
29430;SDS011;16404;49.902;10.074;2022-11-20T03:33:19;57.83;;;24.80;;
29430;SDS011;16404;49.902;10.074;2022-11-20T03:36:04;63.80;;;27.00;;
29430;SDS011;16404;49.902;10.074;2022-11-20T03:38:50;58.42;;;25.63;;
29430;SDS011;16404;49.902;10.074;2022-11-20T03:41:38;55.47;;;24.35;;
29430;SDS011;16404;49.902;10.074;2022-11-20T03:44:24;57.92;;;26.08;;
29430;SDS011;16404;49.902;10.074;2022-11-20T03:47:09;57.60;;;26.38;;
29430;SDS011;16404;49.902;10.074;2022-11-20T03:49:53;56.25;;;25.67;;
29430;SDS011;16404;49.902;10.074;2022-11-20T03:52:38;59.65;;;27.05;;
29430;SDS011;16404;49.902;10.074;2022-11-20T03:55:23;54.92;;;25.65;;
29430;SDS011;16404;49.902;10.074;2022-11-20T03:58:08;54.70;;;24.85;;
29430;SDS011;16404;49.902;10.074;2022-11-20T04:00:53;61.72;;;27.08;;
29430;SDS011;16404;49.902;10.074;2022-11-20T04:03:38;60.65;;;26.85;;
29430;SDS011;16404;49.902;10.074;2022-11-20T04:06:24;51.13;;;24.77;;
29430;SDS011;16404;49.902;10.074;2022-11-20T04:09:10;62.97;;;26.75;;
29430;SDS011;16404;49.902;10.074;2022-11-20T04:11:55;60.30;;;26.00;;
29430;SDS011;16404;49.902;10.074;2022-11-20T04:14:39;58.22;;;26.55;;
29430;SDS011;16404;49.902;10.074;2022-11-20T04:17:24;57.83;;;25.58;;
29430;SDS011;16404;49.902;10.074;2022-11-20T04:20:09;55.45;;;25.10;;
29430;SDS011;16404;49.902;10.074;2022-11-20T04:22:53;62.75;;;25.75;;
29430;SDS011;16404;49.902;10.074;2022-11-20T04:25:38;62.97;;;26.52;;
29430;SDS011;16404;49.902;10.074;2022-11-20T04:28:23;57.95;;;27.08;;
29430;SDS011;16404;49.902;10.074;2022-11-20T04:31:08;60.72;;;27.45;;
29430;SDS011;16404;49.902;10.074;2022-11-20T04:33:55;63.13;;;27.77;;
29430;SDS011;16404;49.902;10.074;2022-11-20T04:36:42;61.03;;;27.17;;
29430;SDS011;16404;49.902;10.074;2022-11-20T04:39:27;62.33;;;28.20;;
29430;SDS011;16404;49.902;10.074;2022-11-20T04:42:11;58.80;;;26.98;;
29430;SDS011;16404;49.902;10.074;2022-11-20T04:45:14;56.65;;;25.70;;
29430;SDS011;16404;49.902;10.074;2022-11-20T04:47:59;59.88;;;25.55;;
29430;SDS011;16404;49.902;10.074;2022-11-20T04:50:43;62.88;;;25.77;;
29430;SDS011;16404;49.902;10.074;2022-11-20T04:53:28;61.50;;;26.35;;
29430;SDS011;16404;49.902;10.074;2022-11-20T04:56:13;65.15;;;28.38;;
29430;SDS011;16404;49.902;10.074;2022-11-20T04:59:01;61.55;;;26.13;;
29430;SDS011;16404;49.902;10.074;2022-11-20T05:01:46;61.08;;;26.60;;
29430;SDS011;16404;49.902;10.074;2022-11-20T05:04:31;62.85;;;26.80;;
29430;SDS011;16404;49.902;10.074;2022-11-20T05:07:15;64.13;;;26.95;;
29430;SDS011;16404;49.902;10.074;2022-11-20T05:10:00;64.28;;;27.42;;
29430;SDS011;16404;49.902;10.074;2022-11-20T05:12:44;63.55;;;28.80;;
29430;SDS011;16404;49.902;10.074;2022-11-20T05:15:29;71.18;;;31.33;;
29430;SDS011;16404;49.902;10.074;2022-11-20T05:18:13;67.55;;;28.70;;
29430;SDS011;16404;49.902;10.074;2022-11-20T05:20:58;69.93;;;30.73;;
29430;SDS011;16404;49.902;10.074;2022-11-20T05:23:43;69.47;;;29.25;;
29430;SDS011;16404;49.902;10.074;2022-11-20T05:26:28;64.53;;;26.50;;
29430;SDS011;16404;49.902;10.074;2022-11-20T05:29:13;65.55;;;27.95;;
29430;SDS011;16404;49.902;10.074;2022-11-20T05:31:58;66.30;;;26.77;;
29430;SDS011;16404;49.902;10.074;2022-11-20T05:34:42;63.95;;;26.05;;
29430;SDS011;16404;49.902;10.074;2022-11-20T05:37:27;65.35;;;27.85;;
29430;SDS011;16404;49.902;10.074;2022-11-20T05:40:12;61.25;;;27.48;;
29430;SDS011;16404;49.902;10.074;2022-11-20T05:42:57;60.05;;;26.05;;
29430;SDS011;16404;49.902;10.074;2022-11-20T05:45:41;61.10;;;27.85;;
29430;SDS011;16404;49.902;10.074;2022-11-20T05:48:26;64.68;;;27.08;;
29430;SDS011;16404;49.902;10.074;2022-11-20T05:51:12;62.10;;;27.70;;
29430;SDS011;16404;49.902;10.074;2022-11-20T05:53:58;66.93;;;27.92;;
29430;SDS011;16404;49.902;10.074;2022-11-20T05:56:42;61.67;;;27.13;;
29430;SDS011;16404;49.902;10.074;2022-11-20T05:59:27;63.65;;;27.60;;
29430;SDS011;16404;49.902;10.074;2022-11-20T06:02:12;67.95;;;28.17;;
29430;SDS011;16404;49.902;10.074;2022-11-20T06:04:56;67.90;;;28.63;;
29430;SDS011;16404;49.902;10.074;2022-11-20T06:07:41;67.07;;;28.17;;
29430;SDS011;16404;49.902;10.074;2022-11-20T06:10:26;60.83;;;26.00;;
29430;SDS011;16404;49.902;10.074;2022-11-20T06:13:10;65.30;;;28.38;;
29430;SDS011;16404;49.902;10.074;2022-11-20T06:15:55;64.28;;;26.35;;
29430;SDS011;16404;49.902;10.074;2022-11-20T06:18:39;61.65;;;25.83;;
29430;SDS011;16404;49.902;10.074;2022-11-20T06:21:24;65.95;;;27.90;;
29430;SDS011;16404;49.902;10.074;2022-11-20T06:24:09;60.50;;;26.65;;
29430;SDS011;16404;49.902;10.074;2022-11-20T06:26:54;66.45;;;27.35;;
29430;SDS011;16404;49.902;10.074;2022-11-20T06:29:38;67.47;;;27.60;;
29430;SDS011;16404;49.902;10.074;2022-11-20T06:32:23;71.88;;;28.13;;
29430;SDS011;16404;49.902;10.074;2022-11-20T06:35:07;66.15;;;27.25;;
29430;SDS011;16404;49.902;10.074;2022-11-20T06:37:52;70.15;;;29.23;;
29430;SDS011;16404;49.902;10.074;2022-11-20T06:40:39;78.78;;;30.27;;
29430;SDS011;16404;49.902;10.074;2022-11-20T06:43:24;65.93;;;26.77;;
29430;SDS011;16404;49.902;10.074;2022-11-20T06:46:10;71.32;;;27.15;;
29430;SDS011;16404;49.902;10.074;2022-11-20T06:48:55;59.15;;;27.23;;
29430;SDS011;16404;49.902;10.074;2022-11-20T06:51:40;70.25;;;28.52;;
29430;SDS011;16404;49.902;10.074;2022-11-20T06:54:25;68.70;;;28.50;;
29430;SDS011;16404;49.902;10.074;2022-11-20T06:57:09;70.53;;;27.73;;
29430;SDS011;16404;49.902;10.074;2022-11-20T06:59:54;64.50;;;27.45;;
29430;SDS011;16404;49.902;10.074;2022-11-20T07:02:38;75.70;;;28.60;;
29430;SDS011;16404;49.902;10.074;2022-11-20T07:05:23;75.28;;;30.00;;
29430;SDS011;16404;49.902;10.074;2022-11-20T07:08:08;82.43;;;29.45;;
29430;SDS011;16404;49.902;10.074;2022-11-20T07:10:52;72.15;;;28.75;;
29430;SDS011;16404;49.902;10.074;2022-11-20T07:13:41;69.82;;;28.20;;
29430;SDS011;16404;49.902;10.074;2022-11-20T07:16:26;70.78;;;27.70;;
29430;SDS011;16404;49.902;10.074;2022-11-20T07:19:10;62.78;;;25.50;;
29430;SDS011;16404;49.902;10.074;2022-11-20T07:21:55;72.60;;;28.55;;
29430;SDS011;16404;49.902;10.074;2022-11-20T07:24:40;70.15;;;26.85;;
29430;SDS011;16404;49.902;10.074;2022-11-20T07:27:25;67.55;;;26.83;;
29430;SDS011;16404;49.902;10.074;2022-11-20T07:30:09;64.95;;;27.02;;
29430;SDS011;16404;49.902;10.074;2022-11-20T07:32:55;67.70;;;27.33;;
29430;SDS011;16404;49.902;10.074;2022-11-20T07:35:40;74.07;;;29.15;;
29430;SDS011;16404;49.902;10.074;2022-11-20T07:38:24;79.80;;;29.38;;
29430;SDS011;16404;49.902;10.074;2022-11-20T07:41:09;69.60;;;28.33;;
29430;SDS011;16404;49.902;10.074;2022-11-20T07:43:53;77.03;;;28.13;;
29430;SDS011;16404;49.902;10.074;2022-11-20T07:46:38;76.10;;;28.25;;
29430;SDS011;16404;49.902;10.074;2022-11-20T07:49:22;79.32;;;29.48;;
29430;SDS011;16404;49.902;10.074;2022-11-20T07:52:07;73.53;;;26.77;;
29430;SDS011;16404;49.902;10.074;2022-11-20T07:54:52;77.22;;;28.15;;
29430;SDS011;16404;49.902;10.074;2022-11-20T07:57:36;79.65;;;27.85;;
29430;SDS011;16404;49.902;10.074;2022-11-20T08:00:21;88.60;;;28.75;;
29430;SDS011;16404;49.902;10.074;2022-11-20T08:03:06;84.50;;;29.13;;
29430;SDS011;16404;49.902;10.074;2022-11-20T08:05:50;76.00;;;27.40;;
29430;SDS011;16404;49.902;10.074;2022-11-20T08:08:35;83.50;;;27.65;;
29430;SDS011;16404;49.902;10.074;2022-11-20T08:11:20;78.93;;;28.75;;
29430;SDS011;16404;49.902;10.074;2022-11-20T08:14:23;80.38;;;28.42;;
29430;SDS011;16404;49.902;10.074;2022-11-20T08:17:07;86.03;;;29.23;;
29430;SDS011;16404;49.902;10.074;2022-11-20T08:19:52;90.05;;;28.02;;
29430;SDS011;16404;49.902;10.074;2022-11-20T08:22:36;86.22;;;28.40;;
29430;SDS011;16404;49.902;10.074;2022-11-20T08:25:21;88.03;;;29.60;;
29430;SDS011;16404;49.902;10.074;2022-11-20T08:28:07;84.88;;;28.40;;
29430;SDS011;16404;49.902;10.074;2022-11-20T08:30:57;85.90;;;27.65;;
29430;SDS011;16404;49.902;10.074;2022-11-20T08:33:45;103.20;;;29.08;;
29430;SDS011;16404;49.902;10.074;2022-11-20T08:36:32;80.50;;;27.00;;
29430;SDS011;16404;49.902;10.074;2022-11-20T08:39:17;88.03;;;27.17;;
29430;SDS011;16404;49.902;10.074;2022-11-20T08:42:06;83.82;;;28.25;;
29430;SDS011;16404;49.902;10.074;2022-11-20T08:44:51;81.47;;;27.15;;
29430;SDS011;16404;49.902;10.074;2022-11-20T08:47:36;84.15;;;27.17;;
29430;SDS011;16404;49.902;10.074;2022-11-20T08:50:21;89.03;;;30.83;;
29430;SDS011;16404;49.902;10.074;2022-11-20T08:53:08;95.18;;;32.67;;
29430;SDS011;16404;49.902;10.074;2022-11-20T08:55:52;95.20;;;34.90;;
29430;SDS011;16404;49.902;10.074;2022-11-20T08:58:38;96.88;;;34.60;;
29430;SDS011;16404;49.902;10.074;2022-11-20T09:01:22;97.60;;;31.73;;
29430;SDS011;16404;49.902;10.074;2022-11-20T09:04:07;86.75;;;28.98;;
29430;SDS011;16404;49.902;10.074;2022-11-20T09:06:52;80.70;;;28.00;;
29430;SDS011;16404;49.902;10.074;2022-11-20T09:09:36;77.95;;;26.58;;
29430;SDS011;16404;49.902;10.074;2022-11-20T09:12:21;75.00;;;26.63;;
29430;SDS011;16404;49.902;10.074;2022-11-20T09:15:06;81.60;;;27.90;;
29430;SDS011;16404;49.902;10.074;2022-11-20T09:17:51;78.80;;;25.55;;
29430;SDS011;16404;49.902;10.074;2022-11-20T09:20:40;67.78;;;25.90;;
29430;SDS011;16404;49.902;10.074;2022-11-20T09:23:25;74.10;;;25.77;;
29430;SDS011;16404;49.902;10.074;2022-11-20T09:28:57;70.25;;;24.40;;
29430;SDS011;16404;49.902;10.074;2022-11-20T09:31:42;66.93;;;25.95;;
29430;SDS011;16404;49.902;10.074;2022-11-20T09:34:26;91.40;;;28.98;;
29430;SDS011;16404;49.902;10.074;2022-11-20T09:37:11;74.63;;;26.05;;
29430;SDS011;16404;49.902;10.074;2022-11-20T09:39:55;84.40;;;29.15;;
29430;SDS011;16404;49.902;10.074;2022-11-20T09:43:03;91.55;;;33.20;;
29430;SDS011;16404;49.902;10.074;2022-11-20T09:46:25;99.00;;;32.75;;
29430;SDS011;16404;49.902;10.074;2022-11-20T09:49:47;77.70;;;28.77;;
29430;SDS011;16404;49.902;10.074;2022-11-20T09:55:53;74.35;;;27.67;;
29430;SDS011;16404;49.902;10.074;2022-11-20T09:58:47;74.20;;;27.00;;
29430;SDS011;16404;49.902;10.074;2022-11-20T10:01:50;76.73;;;28.20;;
29430;SDS011;16404;49.902;10.074;2022-11-20T10:04:34;71.50;;;27.83;;
29430;SDS011;16404;49.902;10.074;2022-11-20T10:07:30;72.82;;;28.95;;
29430;SDS011;16404;49.902;10.074;2022-11-20T10:16:17;86.03;;;31.13;;
29430;SDS011;16404;49.902;10.074;2022-11-20T10:24:56;96.85;;;36.88;;
29430;SDS011;16404;49.902;10.074;2022-11-20T10:30:38;73.80;;;30.00;;
29430;SDS011;16404;49.902;10.074;2022-11-20T10:33:27;72.63;;;31.10;;
29430;SDS011;16404;49.902;10.074;2022-11-20T10:36:18;67.60;;;28.55;;
29430;SDS011;16404;49.902;10.074;2022-11-20T10:39:05;65.20;;;26.08;;
29430;SDS011;16404;49.902;10.074;2022-11-20T10:41:50;53.15;;;22.50;;
29430;SDS011;16404;49.902;10.074;2022-11-20T10:44:37;58.10;;;24.20;;
29430;SDS011;16404;49.902;10.074;2022-11-20T10:47:45;65.28;;;25.85;;
29430;SDS011;16404;49.902;10.074;2022-11-20T10:50:30;59.78;;;24.00;;
29430;SDS011;16404;49.902;10.074;2022-11-20T10:53:31;66.82;;;27.33;;
29430;SDS011;16404;49.902;10.074;2022-11-20T10:56:34;59.67;;;25.98;;
29430;SDS011;16404;49.902;10.074;2022-11-20T11:02:34;48.47;;;21.70;;
29430;SDS011;16404;49.902;10.074;2022-11-20T11:05:36;52.88;;;23.08;;
29430;SDS011;16404;49.902;10.074;2022-11-20T11:08:39;56.23;;;24.20;;
29430;SDS011;16404;49.902;10.074;2022-11-20T11:11:26;53.53;;;24.05;;
29430;SDS011;16404;49.902;10.074;2022-11-20T11:14:14;55.45;;;23.23;;
29430;SDS011;16404;49.902;10.074;2022-11-20T11:17:00;59.30;;;24.65;;
29430;SDS011;16404;49.902;10.074;2022-11-20T11:19:45;51.03;;;23.10;;
29430;SDS011;16404;49.902;10.074;2022-11-20T11:22:44;49.95;;;22.15;;
29430;SDS011;16404;49.902;10.074;2022-11-20T11:25:35;50.53;;;23.35;;
29430;SDS011;16404;49.902;10.074;2022-11-20T11:28:21;50.45;;;23.15;;
29430;SDS011;16404;49.902;10.074;2022-11-20T11:31:08;53.72;;;23.23;;
29430;SDS011;16404;49.902;10.074;2022-11-20T11:34:03;55.33;;;24.30;;
29430;SDS011;16404;49.902;10.074;2022-11-20T11:37:10;36.22;;;17.60;;
29430;SDS011;16404;49.902;10.074;2022-11-20T11:40:00;37.53;;;17.10;;
29430;SDS011;16404;49.902;10.074;2022-11-20T11:43:15;38.38;;;17.63;;
29430;SDS011;16404;49.902;10.074;2022-11-20T11:55:01;33.72;;;15.98;;
29430;SDS011;16404;49.902;10.074;2022-11-20T11:58:11;31.02;;;13.88;;
29430;SDS011;16404;49.902;10.074;2022-11-20T12:07:55;32.83;;;15.45;;
29430;SDS011;16404;49.902;10.074;2022-11-20T12:10:43;30.95;;;14.05;;
29430;SDS011;16404;49.902;10.074;2022-11-20T12:16:20;57.83;;;23.40;;
29430;SDS011;16404;49.902;10.074;2022-11-20T12:19:11;68.13;;;27.05;;
29430;SDS011;16404;49.902;10.074;2022-11-20T12:25:14;68.13;;;25.58;;
29430;SDS011;16404;49.902;10.074;2022-11-20T12:28:20;66.50;;;27.25;;
29430;SDS011;16404;49.902;10.074;2022-11-20T12:34:12;160.23;;;43.80;;
29430;SDS011;16404;49.902;10.074;2022-11-20T12:40:24;112.15;;;38.55;;
29430;SDS011;16404;49.902;10.074;2022-11-20T12:43:21;88.47;;;30.45;;
29430;SDS011;16404;49.902;10.074;2022-11-20T12:57:09;60.83;;;23.23;;
29430;SDS011;16404;49.902;10.074;2022-11-20T13:03:17;61.50;;;23.90;;
29430;SDS011;16404;49.902;10.074;2022-11-20T13:06:34;66.20;;;25.08;;
29430;SDS011;16404;49.902;10.074;2022-11-20T13:09:20;72.03;;;25.42;;
29430;SDS011;16404;49.902;10.074;2022-11-20T13:12:08;54.05;;;22.42;;
29430;SDS011;16404;49.902;10.074;2022-11-20T13:17:59;41.20;;;17.95;;
29430;SDS011;16404;49.902;10.074;2022-11-20T13:20:46;36.72;;;17.33;;
29430;SDS011;16404;49.902;10.074;2022-11-20T13:23:32;41.28;;;18.20;;
29430;SDS011;16404;49.902;10.074;2022-11-20T13:26:20;33.58;;;16.42;;
29430;SDS011;16404;49.902;10.074;2022-11-20T13:29:17;31.38;;;15.45;;
29430;SDS011;16404;49.902;10.074;2022-11-20T13:32:03;35.50;;;17.00;;
29430;SDS011;16404;49.902;10.074;2022-11-20T13:35:00;35.03;;;15.20;;
29430;SDS011;16404;49.902;10.074;2022-11-20T13:37:46;29.20;;;15.80;;
29430;SDS011;16404;49.902;10.074;2022-11-20T13:40:31;29.15;;;14.60;;
29430;SDS011;16404;49.902;10.074;2022-11-20T13:46:05;36.70;;;16.63;;
29430;SDS011;16404;49.902;10.074;2022-11-20T13:48:51;37.03;;;17.45;;
29430;SDS011;16404;49.902;10.074;2022-11-20T13:51:47;33.45;;;17.15;;
29430;SDS011;16404;49.902;10.074;2022-11-20T14:00:57;38.13;;;16.42;;
29430;SDS011;16404;49.902;10.074;2022-11-20T14:03:46;43.42;;;19.63;;
29430;SDS011;16404;49.902;10.074;2022-11-20T14:06:32;39.35;;;18.60;;
29430;SDS011;16404;49.902;10.074;2022-11-20T14:09:30;35.28;;;17.17;;
29430;SDS011;16404;49.902;10.074;2022-11-20T14:12:16;46.50;;;20.02;;
29430;SDS011;16404;49.902;10.074;2022-11-20T14:15:03;41.95;;;18.60;;
29430;SDS011;16404;49.902;10.074;2022-11-20T14:17:47;47.97;;;20.38;;
29430;SDS011;16404;49.902;10.074;2022-11-20T14:20:32;35.15;;;17.38;;
29430;SDS011;16404;49.902;10.074;2022-11-20T14:23:26;32.63;;;16.65;;
29430;SDS011;16404;49.902;10.074;2022-11-20T14:26:14;33.78;;;16.75;;
29430;SDS011;16404;49.902;10.074;2022-11-20T14:29:02;37.72;;;17.95;;
29430;SDS011;16404;49.902;10.074;2022-11-20T14:31:47;38.83;;;18.20;;
29430;SDS011;16404;49.902;10.074;2022-11-20T14:34:37;50.65;;;21.00;;
29430;SDS011;16404;49.902;10.074;2022-11-20T14:37:26;89.03;;;34.85;;
29430;SDS011;16404;49.902;10.074;2022-11-20T14:40:31;78.55;;;31.90;;
29430;SDS011;16404;49.902;10.074;2022-11-20T14:46:08;49.63;;;22.10;;
29430;SDS011;16404;49.902;10.074;2022-11-20T14:49:00;46.63;;;22.13;;
29430;SDS011;16404;49.902;10.074;2022-11-20T14:51:46;44.92;;;20.80;;
29430;SDS011;16404;49.902;10.074;2022-11-20T14:54:44;40.03;;;18.58;;
29430;SDS011;16404;49.902;10.074;2022-11-20T14:57:36;39.38;;;18.38;;
29430;SDS011;16404;49.902;10.074;2022-11-20T15:00:20;43.80;;;20.35;;
29430;SDS011;16404;49.902;10.074;2022-11-20T15:03:14;44.45;;;18.50;;
29430;SDS011;16404;49.902;10.074;2022-11-20T15:06:00;50.53;;;20.10;;
29430;SDS011;16404;49.902;10.074;2022-11-20T15:08:57;45.00;;;18.80;;
29430;SDS011;16404;49.902;10.074;2022-11-20T15:14:41;41.88;;;16.80;;
29430;SDS011;16404;49.902;10.074;2022-11-20T15:17:27;40.63;;;16.77;;
29430;SDS011;16404;49.902;10.074;2022-11-20T15:20:14;46.72;;;18.13;;
29430;SDS011;16404;49.902;10.074;2022-11-20T15:23:00;37.85;;;16.30;;
29430;SDS011;16404;49.902;10.074;2022-11-20T15:25:45;37.35;;;14.70;;
29430;SDS011;16404;49.902;10.074;2022-11-20T15:28:38;48.33;;;18.58;;
29430;SDS011;16404;49.902;10.074;2022-11-20T15:31:26;46.55;;;17.98;;
29430;SDS011;16404;49.902;10.074;2022-11-20T15:34:12;50.63;;;19.45;;
29430;SDS011;16404;49.902;10.074;2022-11-20T15:36:59;55.80;;;21.85;;
29430;SDS011;16404;49.902;10.074;2022-11-20T15:39:44;61.53;;;25.33;;
29430;SDS011;16404;49.902;10.074;2022-11-20T15:42:28;61.83;;;23.95;;
29430;SDS011;16404;49.902;10.074;2022-11-20T15:45:13;55.20;;;23.02;;
29430;SDS011;16404;49.902;10.074;2022-11-20T15:47:58;58.33;;;24.60;;
29430;SDS011;16404;49.902;10.074;2022-11-20T15:53:33;67.70;;;24.73;;
29430;SDS011;16404;49.902;10.074;2022-11-20T15:56:19;67.43;;;25.17;;
29430;SDS011;16404;49.902;10.074;2022-11-20T15:59:04;68.40;;;25.08;;
29430;SDS011;16404;49.902;10.074;2022-11-20T16:01:48;60.50;;;23.65;;
29430;SDS011;16404;49.902;10.074;2022-11-20T16:04:33;58.97;;;23.88;;
29430;SDS011;16404;49.902;10.074;2022-11-20T16:07:18;61.58;;;22.67;;
29430;SDS011;16404;49.902;10.074;2022-11-20T16:10:02;62.78;;;21.60;;
29430;SDS011;16404;49.902;10.074;2022-11-20T16:12:47;73.57;;;33.47;;
29430;SDS011;16404;49.902;10.074;2022-11-20T16:15:59;65.15;;;24.73;;
29430;SDS011;16404;49.902;10.074;2022-11-20T16:18:45;188.98;;;70.75;;
29430;SDS011;16404;49.902;10.074;2022-11-20T16:21:30;213.88;;;78.53;;
29430;SDS011;16404;49.902;10.074;2022-11-20T16:24:15;93.93;;;31.33;;
29430;SDS011;16404;49.902;10.074;2022-11-20T16:29:44;130.85;;;51.40;;
29430;SDS011;16404;49.902;10.074;2022-11-20T16:32:29;160.88;;;69.93;;
29430;SDS011;16404;49.902;10.074;2022-11-20T16:35:13;120.13;;;51.70;;
29430;SDS011;16404;49.902;10.074;2022-11-20T16:37:58;127.88;;;59.20;;
29430;SDS011;16404;49.902;10.074;2022-11-20T16:40:42;71.72;;;27.00;;
29430;SDS011;16404;49.902;10.074;2022-11-20T16:43:27;84.93;;;36.22;;
29430;SDS011;16404;49.902;10.074;2022-11-20T16:46:13;109.45;;;47.65;;
29430;SDS011;16404;49.902;10.074;2022-11-20T16:48:59;95.25;;;42.22;;
29430;SDS011;16404;49.902;10.074;2022-11-20T16:51:44;90.50;;;32.17;;
29430;SDS011;16404;49.902;10.074;2022-11-20T16:54:28;97.07;;;35.92;;
29430;SDS011;16404;49.902;10.074;2022-11-20T16:57:13;85.88;;;30.48;;
29430;SDS011;16404;49.902;10.074;2022-11-20T16:59:58;94.75;;;29.20;;
29430;SDS011;16404;49.902;10.074;2022-11-20T17:02:43;117.90;;;32.47;;
29430;SDS011;16404;49.902;10.074;2022-11-20T17:05:31;117.25;;;31.20;;
29430;SDS011;16404;49.902;10.074;2022-11-20T17:08:16;212.40;;;43.13;;
29430;SDS011;16404;49.902;10.074;2022-11-20T17:11:04;120.93;;;34.65;;
29430;SDS011;16404;49.902;10.074;2022-11-20T17:13:50;183.60;;;31.15;;
29430;SDS011;16404;49.902;10.074;2022-11-20T17:16:35;225.02;;;31.25;;
29430;SDS011;16404;49.902;10.074;2022-11-20T17:19:21;169.32;;;29.15;;
29430;SDS011;16404;49.902;10.074;2022-11-20T17:22:06;173.13;;;30.05;;
29430;SDS011;16404;49.902;10.074;2022-11-20T17:24:51;250.48;;;32.50;;
29430;SDS011;16404;49.902;10.074;2022-11-20T17:27:35;124.43;;;29.35;;
29430;SDS011;16404;49.902;10.074;2022-11-20T17:30:20;96.88;;;26.17;;
29430;SDS011;16404;49.902;10.074;2022-11-20T17:33:05;281.80;;;32.58;;
29430;SDS011;16404;49.902;10.074;2022-11-20T17:35:49;188.18;;;32.63;;
29430;SDS011;16404;49.902;10.074;2022-11-20T17:38:34;125.28;;;28.20;;
29430;SDS011;16404;49.902;10.074;2022-11-20T17:41:20;333.98;;;33.17;;
29430;SDS011;16404;49.902;10.074;2022-11-20T17:44:08;168.02;;;28.20;;